createdAt,value
2024-05-09T06:46:55.693Z,14.60
2024-05-09T06:49:38.838Z,14.70
2024-05-09T07:04:05.950Z,15.20
2024-05-09T07:07:05.919Z,15.40
2024-05-09T07:37:04.334Z,16.50
2024-05-09T07:40:40.037Z,16.60
2024-05-09T07:43:24.803Z,16.70
2024-05-09T07:45:55.262Z,16.80
2024-05-09T07:50:01.471Z,16.90
2024-05-09T10:03:56.004Z,20.80
2024-05-09T10:06:27.373Z,20.80
2024-05-09T10:13:13.646Z,20.90
2024-05-09T10:15:51.207Z,21.00
2024-05-09T10:18:28.468Z,21.00
2024-05-09T10:20:59.093Z,21.10
2024-05-09T10:23:49.139Z,21.10
2024-05-09T10:26:16.501Z,21.20
2024-05-09T10:29:03.553Z,21.20
2024-05-09T10:35:37.852Z,21.30
2024-05-09T10:42:07.734Z,21.30
2024-05-09T10:45:31.573Z,21.30
2024-05-09T11:08:33.117Z,21.60
2024-05-09T11:12:15.526Z,21.70
2024-05-09T11:19:53.392Z,21.80
2024-05-09T12:10:19.877Z,21.80
2024-05-09T12:12:56.007Z,21.90
2024-05-09T12:15:23.303Z,21.90
2024-05-09T12:18:04.369Z,22.00
2024-05-09T12:20:39.453Z,22.10
2024-05-09T12:23:16.492Z,22.10
2024-05-09T12:25:51.423Z,22.20
2024-05-09T12:28:21.856Z,22.20
2024-05-09T12:30:52.255Z,22.20
2024-05-09T12:34:35.284Z,22.30
2024-05-09T12:36:38.062Z,22.30
2024-05-09T12:39:12.137Z,22.30
2024-05-09T12:41:53.540Z,22.30
2024-05-09T12:47:56.773Z,22.20
2024-05-09T12:50:32.856Z,22.20
2024-05-09T12:53:05.465Z,22.20
2024-05-09T12:55:41.171Z,22.20
2024-05-09T12:58:16.989Z,22.30
2024-05-09T13:00:47.561Z,22.20
2024-05-09T13:03:15.339Z,22.30
2024-05-09T13:05:45.490Z,22.30
2024-05-09T13:08:13.660Z,22.40
2024-05-09T13:10:45.413Z,22.40
2024-05-09T13:13:15.923Z,22.50
2024-05-09T13:15:49.441Z,22.50
2024-05-09T13:18:16.739Z,22.50
2024-05-09T13:20:44.422Z,22.50
2024-05-09T13:23:11.693Z,22.50
2024-05-09T13:25:42.232Z,22.50
2024-05-09T13:28:11.146Z,22.50
2024-05-09T13:30:41.364Z,22.50
2024-05-09T13:33:19.883Z,22.40
2024-05-09T13:35:50.380Z,22.40
2024-05-09T13:38:31.066Z,22.40
2024-05-09T13:40:58.443Z,22.40
2024-05-09T13:43:42.346Z,22.40
2024-05-09T13:46:11.013Z,22.50
2024-05-09T13:48:42.428Z,22.50
2024-05-09T13:51:09.864Z,22.60
2024-05-09T13:53:37.085Z,22.60
2024-05-09T13:56:09.986Z,22.70
2024-05-09T13:58:44.124Z,22.70
2024-05-09T14:01:14.060Z,22.80
2024-05-09T14:03:43.818Z,22.80
2024-05-09T14:06:14.220Z,22.90
2024-05-09T14:08:41.264Z,23.00
2024-05-09T14:11:08.439Z,23.00
2024-05-09T14:13:35.484Z,23.00
2024-05-09T14:16:02.648Z,23.20
2024-05-09T14:18:29.884Z,23.20
2024-05-09T14:20:56.999Z,23.30
2024-05-09T14:23:24.231Z,23.30
2024-05-09T14:25:53.318Z,23.40
2024-05-09T14:28:22.007Z,23.40
2024-05-09T14:30:49.142Z,23.50
2024-05-09T14:33:20.869Z,23.50
2024-05-09T14:35:47.956Z,23.50
2024-05-09T14:38:14.994Z,23.50
2024-05-09T14:40:43.963Z,23.40
2024-05-09T14:43:12.411Z,23.40
2024-05-09T14:45:40.139Z,23.40
2024-05-09T14:48:07.852Z,23.40
2024-05-09T14:50:39.527Z,23.40
2024-05-09T14:53:08.376Z,23.40
2024-05-09T14:55:37.250Z,23.40
2024-05-09T14:58:09.324Z,23.40
2024-05-09T15:00:46.809Z,23.40
2024-05-09T15:03:21.819Z,23.40
2024-05-09T15:05:49.835Z,23.40
2024-05-09T15:08:17.959Z,23.50
2024-05-09T15:10:45.669Z,23.50
2024-05-09T15:13:15.538Z,23.50
2024-05-09T15:15:43.790Z,23.50
2024-05-09T15:18:10.940Z,23.50
2024-05-09T15:20:41.427Z,23.50
2024-05-09T15:23:10.034Z,23.50
2024-05-09T15:25:37.374Z,23.60
2024-05-09T15:28:07.812Z,23.60
2024-05-09T15:30:35.481Z,23.60
2024-05-09T15:33:07.205Z,23.60
2024-05-09T15:35:41.682Z,23.60
2024-05-09T15:38:09.109Z,23.60
2024-05-09T15:40:40.626Z,23.60
2024-05-09T15:43:13.397Z,23.60
2024-05-09T15:45:48.942Z,23.60
2024-05-09T15:48:16.124Z,23.60
2024-05-09T15:50:43.673Z,23.60
2024-05-09T15:53:12.301Z,23.60
2024-05-09T15:55:40.160Z,23.60
2024-05-09T15:58:07.729Z,23.60
2024-05-09T16:00:39.431Z,23.60
2024-05-09T16:03:14.219Z,23.60
2024-05-09T16:05:44.135Z,23.60
2024-05-09T16:08:12.276Z,23.50
2024-05-09T16:13:54.490Z,23.50
2024-05-09T16:16:21.723Z,23.40
2024-05-09T16:18:48.980Z,23.40
2024-05-09T16:21:18.571Z,23.40
2024-05-09T16:23:45.755Z,23.40
2024-05-09T16:26:12.874Z,23.40
2024-05-09T16:28:42.026Z,23.40
2024-05-09T16:36:24.601Z,23.30
2024-05-09T16:52:26.857Z,22.80
2024-05-09T16:55:30.922Z,22.70
2024-05-09T17:01:59.994Z,22.70
2024-05-09T17:12:31.978Z,22.70
2024-05-09T17:15:21.593Z,22.70
2024-05-09T17:28:42.574Z,22.70
2024-05-09T17:31:41.582Z,22.70
2024-05-09T17:34:15.155Z,22.70
2024-05-09T17:37:27.736Z,22.70
2024-05-09T17:40:06.771Z,22.70
2024-05-09T17:42:46.379Z,22.70
2024-05-09T17:48:03.242Z,22.70
2024-05-09T17:54:23.303Z,22.50
2024-05-09T17:56:50.997Z,22.50
2024-05-09T17:59:32.648Z,22.50
2024-05-09T18:02:02.924Z,22.40
2024-05-09T18:04:36.700Z,22.40
2024-05-09T18:17:16.100Z,22.10
2024-05-09T18:23:52.159Z,22.00
2024-05-09T18:54:48.086Z,21.40
2024-05-09T19:39:35.823Z,20.20
2024-05-09T19:42:27.171Z,20.10
2024-05-09T19:45:40.351Z,20.00
2024-05-09T19:51:52.620Z,20.00
2024-05-09T19:58:54.088Z,19.80
2024-05-09T20:09:24.813Z,19.50
2024-05-09T20:37:28.797Z,18.90
2024-05-09T21:30:42.824Z,18.10
2024-05-09T21:40:58.087Z,17.90
2024-05-09T21:51:52.482Z,17.70
2024-05-09T22:30:45.188Z,17.00
2024-05-09T22:33:30.851Z,17.00
2024-05-09T22:40:42.366Z,16.90
2024-05-09T22:51:16.742Z,16.70
2024-05-09T23:26:18.319Z,16.20
